CMA CGM Thalassa — 5BNE2 — position and weather

sailwx.info

Track history (hours):
 
Tides and Currents Weather Stations Pressure Air Temp Water Temp Dewpoint Dewpoint Depression Visibility Wind Speed Wind Dir Waves Ship Positions

CMA CGM Thalassa

Last reported at 2015-Feb-01 09:33 UTC. Time now 2015-Feb-01 10:15 UTC.
Position N 53°36' E 005°32'.

Length 347 m; draft 12.7 m.

Type: Cargo ship. MMSI: 212151000.

Date/timePositionNaut miles runAvg speedWind from/ knotsBaromVisibWave heightAir tempDewpointWater temp
2015-Feb-01 09:33N 53°36' E 005°32'1818.2
2015-Feb-01 08:33N 53°30' E 005°03'1817.9
2015-Feb-01 07:33N 53°20' E 004°38'1817.6
2015-Feb-01 06:33N 53°05' E 004°25'1817.6
2015-Feb-01 05:33N 52°48' E 004°13'1817.9
2015-Feb-01 04:33N 52°38' E 003°49'5917.6
2015-Feb-01 01:11N 51°53' E 002°46'1117.4
2015-Feb-01 00:33N 51°45' E 002°34'1817.7
2015-Jan-31 23:33N 51°31' E 002°15'1817.6
2015-Jan-31 22:33N 51°18' E 001°56'1817.7
2015-Jan-31 21:34N 51°05' E 001°38'9716.2
2015-Jan-31 15:33N 49°54' W 000°07'1615.6
2015-Jan-31 14:33N 49°38' W 000°07'1413.9
2015-Jan-31 13:33N 49°28' E 000°07'2 1.9
2015-Jan-31 12:30N 49°27' E 000°10'0 0.0
2015-Jan-31 11:23N 49°27' E 000°10'0 0.0
2015-Jan-31 10:29N 49°27' E 000°10'0 0.0
2015-Jan-31 09:29N 49°27' E 000°10'0 0.0
2015-Jan-31 08:28N 49°27' E 000°10'0 0.0
2015-Jan-31 07:28N 49°27' E 000°10'0 0.0
2015-Jan-31 06:33N 49°27' E 000°10'0 0.0
2015-Jan-31 05:24N 49°27' E 000°10'0 0.0
2015-Jan-31 04:33N 49°27' E 000°10'0 0.0
2015-Jan-31 03:25N 49°27' E 000°10'0 0.0
2015-Jan-31 02:30N 49°27' E 000°10'0 0.0
2015-Jan-31 01:24N 49°27' E 000°10'0 0.0
2015-Jan-31 00:29N 49°27' E 000°10'0 0.0
2015-Jan-30 23:29N 49°27' E 000°10'0 0.0
2015-Jan-30 22:28N 49°27' E 000°10'0 0.0
2015-Jan-30 21:31N 49°27' E 000°10'0 0.0
2015-Jan-30 20:33N 49°27' E 000°10'0 0.0
2015-Jan-30 19:33N 49°27' E 000°10'0 0.0
2015-Jan-30 18:33N 49°27' E 000°10'0 0.0
2015-Jan-30 17:32N 49°27' E 000°10'0 0.0
2015-Jan-30 16:32N 49°27' E 000°10'0 0.0
2015-Jan-30 15:31N 49°27' E 000°10'0 0.0
2015-Jan-30 14:33N 49°27' E 000°10'1 1.2
2015-Jan-30 13:33N 49°28' E 000°08'7 7.1
2015-Jan-30 12:33N 49°31' W 000°02'7 7.3
2015-Jan-30 11:33N 49°33' W 000°13'1110.7
2015-Jan-30 10:33N 49°37' W 000°28'3 3.1
2015-Jan-30 09:33N 49°39' W 000°30'5 4.7
2015-Jan-30 08:33N 49°41' W 000°37'7 5.4
2015-Jan-30 07:20N 49°42' W 000°47'2 0.3
2015-Jan-30 02:06N 49°43' W 000°50'3 5.6
2015-Jan-30 01:33N 49°42' W 000°45'6 6.2
2015-Jan-30 00:33N 49°40' W 000°36'6 6.4
2015-Jan-29 23:33N 49°39' W 000°26'2 2.4
2015-Jan-29 22:33N 49°39' W 000°30'8 8.1
2015-Jan-29 21:33N 49°42' W 000°42'74314.9
2015-Jan-27 19:33N 39°12' W 009°52'1919.7
2015-Jan-27 18:33N 38°52' W 009°52'2119.6
2015-Jan-27 17:30N 38°31' W 009°48'1919.6
2015-Jan-27 16:33N 38°13' W 009°43'2019.6
2015-Jan-27 15:33N 37°54' W 009°37'2019.8
2015-Jan-27 14:33N 37°35' W 009°31'2019.6
2015-Jan-27 13:33N 37°16' W 009°25'4017.8
2015-Jan-27 11:19N 36°43' W 008°59'1519.9
2015-Jan-27 10:33N 36°38' W 008°40'2020.3
2015-Jan-27 09:33N 36°32' W 008°16'13919.9
2015-Jan-27 02:33N 36°00' W 005°28'92318.7
2015-Jan-25 01:16N 36°38' E 013°37'1419.8
2015-Jan-25 00:33N 36°34' E 013°54'2019.8
2015-Jan-24 23:34N 36°29' E 014°17'62219.3
2015-Jan-23 15:22N 33°29' E 026°24'5820.1
2015-Jan-23 12:28N 33°12' E 027°31'14420.6
2015-Jan-23 05:27N 32°30' E 030°15'1819.7
2015-Jan-23 04:33N 32°25' E 030°35'2019.7
2015-Jan-23 03:31N 32°19' E 030°58'4321.1
2015-Jan-23 01:28N 32°06' E 031°47'1920.8
2015-Jan-23 00:33N 32°01' E 032°09'2218.3
2015-Jan-22 23:22N 31°42' E 032°21'1417.7
2015-Jan-22 22:33N 31°28' E 032°24'1414.1
2015-Jan-22 21:33N 31°14' E 032°21'8 7.8
2015-Jan-22 20:33N 31°06' E 032°19'1010.0
2015-Jan-22 19:33N 30°56' E 032°19'1110.9
2015-Jan-22 18:33N 30°46' E 032°20'  
Track history (hours):
 
Tides and Currents Weather Stations Pressure Air Temp Water Temp Dewpoint Dewpoint Depression Visibility Wind Speed Wind Dir Waves Ship Positions

CMA CGM Thalassa

Last reported at 2015-Feb-01 09:33 UTC. Time now 2015-Feb-01 10:15 UTC.
Position N 53°36' E 005°32'.

Length 347 m; draft 12.7 m.

Type: Cargo ship. MMSI: 212151000.

Date/timePositionNaut miles runAvg speedWind from/ knotsBaromVisibWave heightAir tempDewpointWater temp
2015-Feb-01 09:33N 53°36' E 005°32'1818.2
2015-Feb-01 08:33N 53°30' E 005°03'1817.9
2015-Feb-01 07:33N 53°20' E 004°38'1817.6
2015-Feb-01 06:33N 53°05' E 004°25'1817.6
2015-Feb-01 05:33N 52°48' E 004°13'1817.9
2015-Feb-01 04:33N 52°38' E 003°49'5917.6
2015-Feb-01 01:11N 51°53' E 002°46'1117.4
2015-Feb-01 00:33N 51°45' E 002°34'1817.7
2015-Jan-31 23:33N 51°31' E 002°15'1817.6
2015-Jan-31 22:33N 51°18' E 001°56'1817.7
2015-Jan-31 21:34N 51°05' E 001°38'9716.2
2015-Jan-31 15:33N 49°54' W 000°07'1615.6
2015-Jan-31 14:33N 49°38' W 000°07'1413.9
2015-Jan-31 13:33N 49°28' E 000°07'2 1.9
2015-Jan-31 12:30N 49°27' E 000°10'0 0.0
2015-Jan-31 11:23N 49°27' E 000°10'0 0.0
2015-Jan-31 10:29N 49°27' E 000°10'0 0.0
2015-Jan-31 09:29N 49°27' E 000°10'0 0.0
2015-Jan-31 08:28N 49°27' E 000°10'0 0.0
2015-Jan-31 07:28N 49°27' E 000°10'0 0.0
2015-Jan-31 06:33N 49°27' E 000°10'0 0.0
2015-Jan-31 05:24N 49°27' E 000°10'0 0.0
2015-Jan-31 04:33N 49°27' E 000°10'0 0.0
2015-Jan-31 03:25N 49°27' E 000°10'0 0.0
2015-Jan-31 02:30N 49°27' E 000°10'0 0.0
2015-Jan-31 01:24N 49°27' E 000°10'0 0.0
2015-Jan-31 00:29N 49°27' E 000°10'0 0.0
2015-Jan-30 23:29N 49°27' E 000°10'0 0.0
2015-Jan-30 22:28N 49°27' E 000°10'0 0.0
2015-Jan-30 21:31N 49°27' E 000°10'0 0.0
2015-Jan-30 20:33N 49°27' E 000°10'0 0.0
2015-Jan-30 19:33N 49°27' E 000°10'0 0.0
2015-Jan-30 18:33N 49°27' E 000°10'0 0.0
2015-Jan-30 17:32N 49°27' E 000°10'0 0.0
2015-Jan-30 16:32N 49°27' E 000°10'0 0.0
2015-Jan-30 15:31N 49°27' E 000°10'0 0.0
2015-Jan-30 14:33N 49°27' E 000°10'1 1.2
2015-Jan-30 13:33N 49°28' E 000°08'7 7.1
2015-Jan-30 12:33N 49°31' W 000°02'7 7.3
2015-Jan-30 11:33N 49°33' W 000°13'1110.7
2015-Jan-30 10:33N 49°37' W 000°28'3 3.1
2015-Jan-30 09:33N 49°39' W 000°30'5 4.7
2015-Jan-30 08:33N 49°41' W 000°37'7 5.4
2015-Jan-30 07:20N 49°42' W 000°47'2 0.3
2015-Jan-30 02:06N 49°43' W 000°50'3 5.6
2015-Jan-30 01:33N 49°42' W 000°45'6 6.2
2015-Jan-30 00:33N 49°40' W 000°36'6 6.4
2015-Jan-29 23:33N 49°39' W 000°26'2 2.4
2015-Jan-29 22:33N 49°39' W 000°30'8 8.1
2015-Jan-29 21:33N 49°42' W 000°42'74314.9
2015-Jan-27 19:33N 39°12' W 009°52'1919.7
2015-Jan-27 18:33N 38°52' W 009°52'2119.6
2015-Jan-27 17:30N 38°31' W 009°48'1919.6
2015-Jan-27 16:33N 38°13' W 009°43'2019.6
2015-Jan-27 15:33N 37°54' W 009°37'2019.8
2015-Jan-27 14:33N 37°35' W 009°31'2019.6
2015-Jan-27 13:33N 37°16' W 009°25'4017.8
2015-Jan-27 11:19N 36°43' W 008°59'1519.9
2015-Jan-27 10:33N 36°38' W 008°40'2020.3
2015-Jan-27 09:33N 36°32' W 008°16'13919.9
2015-Jan-27 02:33N 36°00' W 005°28'92318.7
2015-Jan-25 01:16N 36°38' E 013°37'1419.8
2015-Jan-25 00:33N 36°34' E 013°54'2019.8
2015-Jan-24 23:34N 36°29' E 014°17'62219.3
2015-Jan-23 15:22N 33°29' E 026°24'5820.1
2015-Jan-23 12:28N 33°12' E 027°31'14420.6
2015-Jan-23 05:27N 32°30' E 030°15'1819.7
2015-Jan-23 04:33N 32°25' E 030°35'2019.7
2015-Jan-23 03:31N 32°19' E 030°58'4321.1
2015-Jan-23 01:28N 32°06' E 031°47'1920.8
2015-Jan-23 00:33N 32°01' E 032°09'2218.3
2015-Jan-22 23:22N 31°42' E 032°21'1417.7
2015-Jan-22 22:33N 31°28' E 032°24'1414.1
2015-Jan-22 21:33N 31°14' E 032°21'8 7.8
2015-Jan-22 20:33N 31°06' E 032°19'1010.0
2015-Jan-22 19:33N 30°56' E 032°19'1110.9
2015-Jan-22 18:33N 30°46' E 032°20'  

Dump ship's entire track history